createdAt,value
2023-01-18T00:00:46.378Z,12.52
2023-01-18T00:03:13.600Z,8.95
2023-01-18T00:05:41.657Z,8.60
2023-01-18T00:08:13.466Z,7.78
2023-01-18T00:10:40.324Z,10.82
2023-01-18T00:13:07.184Z,8.75
2023-01-18T00:15:37.097Z,7.82
2023-01-18T00:18:04.030Z,8.95
2023-01-18T00:20:31.387Z,7.28
2023-01-18T00:23:00.901Z,9.27
2023-01-18T00:25:29.061Z,6.05
2023-01-18T00:27:56.119Z,8.52
2023-01-18T00:30:25.318Z,7.50
2023-01-18T00:32:57.446Z,7.18
2023-01-18T00:35:24.482Z,6.70
2023-01-18T00:37:52.170Z,7.85
2023-01-18T00:40:20.585Z,5.55
2023-01-18T00:43:05.954Z,6.97
2023-01-18T00:45:32.707Z,9.93
2023-01-18T00:47:59.313Z,8.35
2023-01-18T00:50:25.928Z,8.18
2023-01-18T00:52:56.916Z,7.47
2023-01-18T00:55:23.917Z,8.35
2023-01-18T00:57:50.812Z,6.38
2023-01-18T01:00:24.184Z,5.78
2023-01-18T01:02:51.785Z,8.32
2023-01-18T01:05:40.721Z,6.75
2023-01-18T01:08:07.660Z,6.25
2023-01-18T01:10:35.125Z,5.93
2023-01-18T01:13:20.770Z,5.10
2023-01-18T01:16:05.634Z,7.97
2023-01-18T01:18:51.133Z,7.22
2023-01-18T01:21:36.318Z,6.53
2023-01-18T01:24:21.664Z,6.28
2023-01-18T01:26:48.351Z,6.15
2023-01-18T01:29:15.997Z,6.35
2023-01-18T01:31:42.701Z,6.63
2023-01-18T01:34:09.861Z,7.30
2023-01-18T01:36:36.415Z,6.65
2023-01-18T01:39:03.040Z,5.88
2023-01-18T01:41:32.664Z,5.57
2023-01-18T01:44:04.448Z,8.60
2023-01-18T01:46:46.678Z,8.77
2023-01-18T01:49:21.299Z,7.47
2023-01-18T01:51:56.320Z,8.18
2023-01-18T01:54:29.376Z,9.20
2023-01-18T01:57:01.364Z,7.85
2023-01-18T01:59:28.059Z,8.45
2023-01-18T02:01:54.704Z,13.48
2023-01-18T02:04:21.301Z,6.93
2023-01-18T02:06:47.832Z,14.23
2023-01-18T02:09:16.202Z,7.75
2023-01-18T02:11:43.871Z,10.13
2023-01-18T02:14:16.469Z,6.28
2023-01-18T02:17:01.785Z,7.20
2023-01-18T02:19:50.653Z,8.38
2023-01-18T02:22:38.994Z,7.30
2023-01-18T02:25:17.420Z,7.15
2023-01-18T02:27:54.304Z,6.75
2023-01-18T02:30:30.601Z,10.20
2023-01-18T02:33:06.546Z,6.57
2023-01-18T02:35:32.948Z,5.38
2023-01-18T02:38:06.024Z,6.68
2023-01-18T02:40:45.427Z,9.93
2023-01-18T02:43:35.184Z,9.48
2023-01-18T02:46:21.392Z,9.13
2023-01-18T02:48:50.082Z,9.35
2023-01-18T02:51:16.547Z,9.85
2023-01-18T02:53:45.499Z,11.43
2023-01-18T02:56:16.960Z,8.60
2023-01-18T02:59:05.111Z,6.43
2023-01-18T03:01:55.122Z,6.88
2023-01-18T03:04:31.233Z,12.40
2023-01-18T03:07:03.757Z,9.02
2023-01-18T03:09:31.209Z,8.45
2023-01-18T03:12:06.077Z,6.93
2023-01-18T03:14:54.078Z,9.20
2023-01-18T03:17:36.226Z,8.25
2023-01-18T03:20:11.175Z,8.85
2023-01-18T03:23:04.295Z,7.35
2023-01-18T03:25:34.808Z,7.40
2023-01-18T03:28:26.861Z,6.88
2023-01-18T03:31:17.009Z,7.25
2023-01-18T03:33:49.837Z,10.48
2023-01-18T03:36:18.381Z,6.90
2023-01-18T03:38:48.034Z,8.30
2023-01-18T03:41:19.927Z,4.97
2023-01-18T03:43:50.361Z,9.32
2023-01-18T03:46:19.839Z,6.97
2023-01-18T03:48:46.416Z,10.55
2023-01-18T03:51:29.891Z,6.43
2023-01-18T03:54:15.352Z,8.57
2023-01-18T03:56:53.079Z,8.65
2023-01-18T03:59:19.607Z,6.82
2023-01-18T04:01:48.282Z,6.85
2023-01-18T04:04:15.217Z,8.57
2023-01-18T04:06:42.421Z,6.25
2023-01-18T04:09:08.991Z,7.35
2023-01-18T04:11:35.481Z,6.90
2023-01-18T04:14:01.893Z,8.07
2023-01-18T04:16:28.442Z,8.10
2023-01-18T04:18:55.060Z,8.77
2023-01-18T04:21:21.722Z,8.23
2023-01-18T04:23:48.155Z,6.00
2023-01-18T04:26:16.661Z,7.70
2023-01-18T04:28:43.459Z,7.07
2023-01-18T04:31:10.092Z,7.95
2023-01-18T04:33:36.915Z,7.38
2023-01-18T04:36:04.160Z,6.75
2023-01-18T04:38:30.721Z,7.30
2023-01-18T04:41:03.205Z,7.75
2023-01-18T04:43:29.934Z,6.97
2023-01-18T04:45:56.850Z,10.82
2023-01-18T04:48:24.373Z,9.40
2023-01-18T04:50:51.570Z,6.40
2023-01-18T04:53:18.588Z,5.63
2023-01-18T04:55:45.479Z,8.38
2023-01-18T04:58:12.014Z,9.55
2023-01-18T05:00:39.943Z,6.78
2023-01-18T05:03:11.289Z,9.02
2023-01-18T05:05:38.014Z,8.05
2023-01-18T05:08:04.635Z,5.80
2023-01-18T05:10:33.534Z,6.97
2023-01-18T05:13:00.530Z,5.45
2023-01-18T05:15:27.737Z,8.57
2023-01-18T05:17:54.289Z,5.68
2023-01-18T05:20:20.895Z,5.45
2023-01-18T05:22:47.564Z,7.45
2023-01-18T05:25:14.189Z,4.93
2023-01-18T05:27:40.849Z,6.68
2023-01-18T05:30:09.660Z,6.30
2023-01-18T05:32:36.398Z,7.88
2023-01-18T05:35:04.970Z,7.72
2023-01-18T05:37:31.664Z,8.30
2023-01-18T05:39:58.194Z,6.85
2023-01-18T05:42:24.689Z,7.40
2023-01-18T05:44:51.196Z,8.43
2023-01-18T05:47:20.532Z,10.32
2023-01-18T05:49:47.113Z,6.97
2023-01-18T05:52:13.733Z,5.55
2023-01-18T05:54:40.273Z,6.28
2023-01-18T05:57:06.866Z,10.73
2023-01-18T05:59:33.422Z,8.48
2023-01-18T06:01:59.955Z,6.40
2023-01-18T06:04:26.599Z,6.40
2023-01-18T06:06:53.393Z,9.98
2023-01-18T06:09:19.876Z,7.53
2023-01-18T06:11:46.363Z,7.30
2023-01-18T06:14:13.076Z,6.22
2023-01-18T06:16:39.608Z,6.82
2023-01-18T06:19:06.275Z,7.90
2023-01-18T06:21:32.869Z,4.88
2023-01-18T06:23:59.472Z,5.90
2023-01-18T06:26:26.028Z,6.22
2023-01-18T06:28:53.569Z,5.45
2023-01-18T06:31:20.222Z,8.45
2023-01-18T06:33:46.735Z,6.53
2023-01-18T06:36:13.384Z,9.50
2023-01-18T06:38:41.339Z,6.32
2023-01-18T06:41:09.120Z,6.78
2023-01-18T06:43:35.619Z,7.40
2023-01-18T06:46:02.956Z,8.07
2023-01-18T06:48:29.929Z,12.05
2023-01-18T06:50:57.385Z,7.93
2023-01-18T06:53:24.584Z,10.98
2023-01-18T06:55:54.857Z,9.93
2023-01-18T06:58:21.438Z,7.00
2023-01-18T07:00:48.122Z,8.10
2023-01-18T07:03:14.687Z,9.48
2023-01-18T07:05:41.169Z,8.02
2023-01-18T07:08:07.698Z,5.60
2023-01-18T07:10:34.259Z,8.73
2023-01-18T07:13:01.170Z,8.80
2023-01-18T07:15:27.730Z,6.75
2023-01-18T07:17:54.389Z,7.63
2023-01-18T07:20:20.913Z,8.57
2023-01-18T07:22:52.585Z,7.28
2023-01-18T07:25:20.796Z,5.72
2023-01-18T07:27:48.900Z,11.20
2023-01-18T07:30:16.302Z,6.20
2023-01-18T07:32:50.936Z,6.15
2023-01-18T07:35:20.025Z,6.28
2023-01-18T07:37:55.316Z,7.50
2023-01-18T07:40:22.201Z,5.97
2023-01-18T07:42:49.140Z,9.80
2023-01-18T07:45:15.836Z,8.57
2023-01-18T07:47:42.723Z,9.93
2023-01-18T07:50:10.240Z,10.65
2023-01-18T07:52:36.708Z,5.63
2023-01-18T07:55:05.213Z,7.10
2023-01-18T07:57:33.033Z,9.38
2023-01-18T07:59:59.598Z,10.75
2023-01-18T08:02:26.141Z,6.30
2023-01-18T08:04:52.664Z,7.72
2023-01-18T08:07:19.924Z,8.18
2023-01-18T08:09:46.428Z,6.75
2023-01-18T08:12:17.913Z,10.90
2023-01-18T08:14:45.971Z,8.77
2023-01-18T08:17:12.733Z,9.05
2023-01-18T08:19:39.426Z,5.57
2023-01-18T08:22:07.774Z,7.95
2023-01-18T08:24:34.230Z,8.93
2023-01-18T08:27:00.806Z,7.47
2023-01-18T08:29:27.246Z,7.68
2023-01-18T08:31:54.239Z,8.65
2023-01-18T08:34:21.874Z,7.82
2023-01-18T08:36:48.360Z,7.57
2023-01-18T08:39:15.070Z,10.32
2023-01-18T08:41:41.934Z,7.07
2023-01-18T08:44:08.429Z,8.52
2023-01-18T08:46:36.400Z,10.27
2023-01-18T08:49:05.628Z,8.38
2023-01-18T08:51:32.591Z,8.95
2023-01-18T08:53:59.855Z,7.20
2023-01-18T08:56:26.672Z,8.35
2023-01-18T08:58:53.418Z,10.30
2023-01-18T09:01:22.984Z,8.63
2023-01-18T09:03:50.621Z,10.90
2023-01-18T09:06:17.412Z,6.30
2023-01-18T09:08:47.489Z,8.43
2023-01-18T09:11:15.117Z,10.40
2023-01-18T09:13:58.572Z,9.25
2023-01-18T09:16:26.240Z,9.75
2023-01-18T09:18:55.221Z,14.32
2023-01-18T09:21:22.350Z,14.73
2023-01-18T09:23:50.773Z,11.23
2023-01-18T09:26:18.341Z,9.80
2023-01-18T09:28:47.746Z,9.65
2023-01-18T09:31:14.611Z,10.93
2023-01-18T09:33:48.305Z,12.02
2023-01-18T09:36:21.441Z,12.60
2023-01-18T09:38:48.108Z,12.68
2023-01-18T09:41:42.782Z,17.45
2023-01-18T09:44:21.550Z,12.00
2023-01-18T09:46:54.496Z,10.48
2023-01-18T09:49:32.675Z,10.55
2023-01-18T09:52:20.036Z,9.93
2023-01-18T09:55:01.024Z,13.93
2023-01-18T09:58:05.779Z,10.13
2023-01-18T10:00:37.123Z,9.60
2023-01-18T10:03:28.726Z,15.38
2023-01-18T10:06:08.932Z,14.13
2023-01-18T10:09:06.979Z,13.38
2023-01-18T10:11:50.499Z,11.25
2023-01-18T10:14:29.056Z,12.40
2023-01-18T10:17:02.494Z,18.67
2023-01-18T10:19:31.382Z,9.20
2023-01-18T10:22:20.877Z,12.77
2023-01-18T10:25:13.045Z,14.32
2023-01-18T10:28:12.837Z,13.75
2023-01-18T10:31:06.049Z,15.18
2023-01-18T10:33:40.899Z,18.23
2023-01-18T10:36:13.575Z,13.70
2023-01-18T10:38:41.195Z,13.93
2023-01-18T10:41:19.331Z,24.80
2023-01-18T10:43:46.855Z,14.40
2023-01-18T10:46:16.963Z,16.38
2023-01-18T10:48:47.279Z,12.02
2023-01-18T10:51:32.146Z,15.45
2023-01-18T10:53:58.730Z,12.95
2023-01-18T10:56:28.303Z,17.90
2023-01-18T10:58:58.393Z,16.50
2023-01-18T11:01:32.009Z,15.93
2023-01-18T11:04:05.938Z,18.33
2023-01-18T11:06:48.038Z,14.25
2023-01-18T11:09:59.276Z,18.25
2023-01-18T11:12:38.869Z,13.75
2023-01-18T11:15:27.733Z,14.90
2023-01-18T11:17:57.955Z,14.07
2023-01-18T11:20:39.183Z,15.48
2023-01-18T11:23:14.837Z,15.30
2023-01-18T11:25:53.413Z,12.45
2023-01-18T11:28:34.059Z,18.55
2023-01-18T11:31:10.221Z,19.50
2023-01-18T11:33:47.891Z,20.00
2023-01-18T11:36:14.530Z,15.50
2023-01-18T11:38:41.578Z,16.95
2023-01-18T11:41:15.707Z,13.63
2023-01-18T11:44:06.724Z,11.27
2023-01-18T11:46:42.602Z,12.98
2023-01-18T11:49:53.513Z,17.48
2023-01-18T11:52:46.805Z,13.07
2023-01-18T11:55:36.290Z,12.10
2023-01-18T11:58:05.180Z,15.40
2023-01-18T12:00:46.799Z,11.98
2023-01-18T12:03:28.398Z,9.73
2023-01-18T12:06:03.819Z,15.07
2023-01-18T12:08:47.994Z,10.30
2023-01-18T12:11:24.163Z,14.02
2023-01-18T12:14:03.473Z,12.88
2023-01-18T12:16:53.970Z,11.13
2023-01-18T12:19:42.481Z,18.20
2023-01-18T12:22:38.662Z,11.10
2023-01-18T12:25:21.990Z,14.88
2023-01-18T12:28:09.702Z,14.20
2023-01-18T12:30:44.242Z,16.85
2023-01-18T12:33:43.523Z,13.55
2023-01-18T12:36:18.843Z,14.65
2023-01-18T12:38:56.037Z,13.52
2023-01-18T12:42:01.290Z,13.65
2023-01-18T12:44:55.969Z,13.30
2023-01-18T12:47:36.125Z,12.73
2023-01-18T12:50:12.847Z,16.17
2023-01-18T12:52:47.719Z,11.45
2023-01-18T12:55:20.989Z,13.88
2023-01-18T12:57:50.408Z,9.55
2023-01-18T13:00:23.052Z,11.18
2023-01-18T13:02:52.838Z,11.95
2023-01-18T13:05:35.512Z,10.18
2023-01-18T13:08:17.009Z,12.25
2023-01-18T13:10:44.671Z,13.65
2023-01-18T13:13:17.688Z,11.80
2023-01-18T13:16:05.752Z,13.70
2023-01-18T13:18:42.603Z,13.50
2023-01-18T13:21:26.669Z,10.20
2023-01-18T13:23:59.988Z,12.07
2023-01-18T13:26:34.586Z,11.82
2023-01-18T13:29:10.261Z,10.45
2023-01-18T13:31:40.436Z,10.05
2023-01-18T13:34:24.389Z,8.90
2023-01-18T13:36:51.011Z,9.63
2023-01-18T13:39:19.541Z,12.48
2023-01-18T13:42:04.323Z,11.63
2023-01-18T13:44:40.288Z,14.65
2023-01-18T13:47:39.482Z,10.23
2023-01-18T13:50:40.014Z,11.65
2023-01-18T13:53:18.413Z,12.30
2023-01-18T13:56:00.074Z,11.55
2023-01-18T13:58:32.409Z,15.25
2023-01-18T14:01:03.584Z,12.10
2023-01-18T14:03:38.709Z,12.55
2023-01-18T14:06:09.113Z,16.25
2023-01-18T14:08:39.791Z,12.68
2023-01-18T14:11:10.320Z,12.70
2023-01-18T14:13:45.788Z,10.05
2023-01-18T14:16:22.837Z,10.65
2023-01-18T14:18:53.706Z,9.32
2023-01-18T14:21:54.128Z,18.63
2023-01-18T14:24:40.559Z,11.80
2023-01-18T14:27:14.398Z,10.35
2023-01-18T14:29:49.726Z,10.00
2023-01-18T14:32:23.198Z,9.35
2023-01-18T14:35:25.961Z,10.65
2023-01-18T14:38:16.738Z,9.43
2023-01-18T14:40:45.960Z,9.43
2023-01-18T14:43:24.888Z,10.93
2023-01-18T14:45:56.297Z,10.50
2023-01-18T14:48:24.496Z,14.82
2023-01-18T14:50:53.993Z,14.40
2023-01-18T14:53:30.817Z,11.15
2023-01-18T14:56:06.660Z,11.20
2023-01-18T14:58:40.318Z,14.23
2023-01-18T15:01:09.066Z,10.57
2023-01-18T15:03:36.451Z,11.52
2023-01-18T15:06:44.915Z,11.68
2023-01-18T15:09:12.834Z,15.35
2023-01-18T15:11:42.035Z,13.07
2023-01-18T15:14:15.730Z,21.73
2023-01-18T15:16:42.583Z,9.73
2023-01-18T15:19:16.860Z,14.23
2023-01-18T15:21:43.993Z,17.90
2023-01-18T15:24:16.188Z,10.95
2023-01-18T15:26:52.217Z,11.15
2023-01-18T15:29:23.908Z,10.75
2023-01-18T15:32:03.655Z,12.27
2023-01-18T15:34:33.557Z,13.25
2023-01-18T15:37:01.931Z,12.38
2023-01-18T15:39:28.866Z,13.57
2023-01-18T15:41:56.913Z,12.48
2023-01-18T15:44:35.702Z,16.95
2023-01-18T15:47:13.643Z,10.98
2023-01-18T15:49:44.405Z,10.00
2023-01-18T15:52:10.960Z,15.55
2023-01-18T15:54:37.813Z,12.80
2023-01-18T15:57:18.840Z,11.57
2023-01-18T15:59:47.754Z,13.57
2023-01-18T16:02:20.135Z,11.27
2023-01-18T16:04:46.836Z,17.73
2023-01-18T16:07:35.929Z,14.90
2023-01-18T16:10:27.752Z,15.43
2023-01-18T16:12:56.506Z,18.75
2023-01-18T16:15:28.188Z,19.05
2023-01-18T16:18:02.733Z,17.10
2023-01-18T16:20:32.301Z,20.05
2023-01-18T16:23:06.705Z,13.57
2023-01-18T16:25:33.288Z,16.65
2023-01-18T16:28:02.542Z,12.02
2023-01-18T16:30:34.463Z,11.48
2023-01-18T16:33:09.370Z,16.35
2023-01-18T16:35:39.706Z,11.88
2023-01-18T16:38:13.507Z,13.35
2023-01-18T16:40:44.070Z,11.48
2023-01-18T16:43:27.391Z,9.48
2023-01-18T16:45:56.534Z,13.18
2023-01-18T16:48:28.296Z,11.07
2023-01-18T16:51:01.568Z,12.98
2023-01-18T16:53:29.239Z,11.48
2023-01-18T16:55:56.738Z,15.13
2023-01-18T16:58:24.134Z,12.45
2023-01-18T17:01:01.515Z,11.90
2023-01-18T17:03:28.140Z,13.55
2023-01-18T17:05:55.476Z,10.43
2023-01-18T17:08:21.980Z,12.82
2023-01-18T17:10:50.704Z,17.75
2023-01-18T17:13:17.794Z,14.65
2023-01-18T17:15:45.625Z,15.10
2023-01-18T17:18:18.297Z,22.20
2023-01-18T17:20:44.884Z,18.13
2023-01-18T17:23:11.519Z,24.42
2023-01-18T17:25:38.766Z,18.08
2023-01-18T17:28:05.563Z,16.75
2023-01-18T17:30:33.032Z,14.40
2023-01-18T17:33:00.635Z,13.38
2023-01-18T17:35:31.932Z,13.90
2023-01-18T17:38:05.712Z,15.38
2023-01-18T17:40:42.548Z,15.70
2023-01-18T17:43:28.500Z,12.98
2023-01-18T17:46:02.543Z,15.82
2023-01-18T17:48:29.486Z,12.13
2023-01-18T17:50:56.060Z,14.38
2023-01-18T17:53:22.843Z,12.15
2023-01-18T17:55:49.874Z,16.23
2023-01-18T17:58:16.340Z,13.45
2023-01-18T18:00:42.902Z,13.30
2023-01-18T18:03:09.882Z,13.57
2023-01-18T18:05:36.703Z,17.23
2023-01-18T18:08:03.184Z,15.50
2023-01-18T18:10:31.012Z,17.60
2023-01-18T18:12:57.881Z,14.45
2023-01-18T18:15:25.029Z,13.82
2023-01-18T18:17:51.640Z,14.25
2023-01-18T18:20:18.278Z,13.80
2023-01-18T18:22:45.010Z,20.17
2023-01-18T18:25:11.577Z,16.80
2023-01-18T18:27:45.361Z,19.60
2023-01-18T18:30:13.016Z,19.23
2023-01-18T18:32:39.650Z,16.60
2023-01-18T18:35:23.278Z,23.55
2023-01-18T18:37:50.953Z,18.60
2023-01-18T18:40:17.965Z,24.17
2023-01-18T18:42:49.927Z,11.70
2023-01-18T18:45:27.121Z,14.63
2023-01-18T18:47:53.831Z,15.48
2023-01-18T18:50:20.404Z,13.55
2023-01-18T18:52:46.896Z,15.25
2023-01-18T18:55:13.657Z,15.05
2023-01-18T18:57:40.238Z,13.10
2023-01-18T19:00:07.816Z,13.35
2023-01-18T19:02:35.635Z,12.20
2023-01-18T19:05:02.387Z,12.40
2023-01-18T19:07:29.255Z,10.77
2023-01-18T19:09:55.978Z,14.82
2023-01-18T19:12:22.604Z,15.13
2023-01-18T19:14:49.165Z,16.55
2023-01-18T19:17:25.172Z,15.93
2023-01-18T19:19:55.983Z,13.73
2023-01-18T19:22:22.490Z,17.48
2023-01-18T19:24:49.333Z,14.02
2023-01-18T19:27:16.588Z,11.88
2023-01-18T19:29:43.205Z,16.67
2023-01-18T19:32:09.765Z,13.60
2023-01-18T19:34:38.652Z,18.92
2023-01-18T19:37:05.661Z,15.55
2023-01-18T19:39:35.475Z,15.88
2023-01-18T19:42:02.582Z,18.58
2023-01-18T19:44:29.289Z,15.27
2023-01-18T19:46:56.871Z,14.70
2023-01-18T19:49:26.221Z,14.00
2023-01-18T19:51:54.302Z,12.60
2023-01-18T19:54:21.012Z,11.40
2023-01-18T19:56:47.448Z,12.68
2023-01-18T19:59:14.993Z,13.95
2023-01-18T20:01:41.949Z,14.35
2023-01-18T20:04:08.798Z,15.40
2023-01-18T20:06:38.271Z,12.32
2023-01-18T20:09:17.648Z,12.45
2023-01-18T20:11:45.706Z,16.92
2023-01-18T20:14:12.479Z,12.23
2023-01-18T20:16:39.110Z,11.00
2023-01-18T20:19:05.744Z,12.38
2023-01-18T20:21:32.195Z,9.80
2023-01-18T20:23:58.975Z,11.18
2023-01-18T20:26:35.861Z,13.48
2023-01-18T20:29:06.813Z,11.52
2023-01-18T20:31:36.085Z,11.32
2023-01-18T20:34:03.548Z,14.88
2023-01-18T20:36:30.523Z,9.68
2023-01-18T20:38:57.385Z,11.15
2023-01-18T20:41:24.013Z,10.43
2023-01-18T20:43:50.586Z,10.57
2023-01-18T20:46:17.211Z,12.48
2023-01-18T20:48:43.821Z,12.93
2023-01-18T20:51:10.509Z,10.05
2023-01-18T20:53:39.982Z,7.60
2023-01-18T20:56:27.924Z,6.97
2023-01-18T20:58:55.159Z,8.75
2023-01-18T21:01:21.751Z,8.10
2023-01-18T21:03:55.210Z,10.85
2023-01-18T21:06:21.711Z,11.38
2023-01-18T21:08:52.527Z,11.48
2023-01-18T21:14:49.235Z,9.80
2023-01-18T21:17:15.727Z,15.52
2023-01-18T21:19:45.926Z,13.18
2023-01-18T21:22:13.205Z,9.50
2023-01-18T21:24:39.845Z,11.23
2023-01-18T21:27:08.038Z,13.85
2023-01-18T21:29:34.508Z,17.80
2023-01-18T21:32:01.454Z,23.15
2023-01-18T21:34:28.014Z,19.73
2023-01-18T21:36:54.514Z,13.77
2023-01-18T21:39:25.193Z,12.00
2023-01-18T21:42:11.157Z,8.88
2023-01-18T21:47:33.080Z,12.95
2023-01-18T21:50:18.899Z,7.70
2023-01-18T21:53:04.149Z,9.48
2023-01-18T21:55:30.710Z,8.45
2023-01-18T21:58:15.564Z,9.45
2023-01-18T22:00:42.444Z,11.18
2023-01-18T22:03:09.846Z,7.82
2023-01-18T22:05:36.434Z,8.52
2023-01-18T22:08:03.174Z,6.68
2023-01-18T22:10:29.872Z,10.48
2023-01-18T22:12:56.415Z,6.60
2023-01-18T22:15:23.173Z,12.15
2023-01-18T22:17:49.784Z,6.60
2023-01-18T22:20:16.668Z,7.28
2023-01-18T22:22:43.200Z,7.53
2023-01-18T22:25:09.981Z,7.85
2023-01-18T22:27:36.491Z,4.93
2023-01-18T22:30:03.953Z,6.28
2023-01-18T22:32:30.483Z,10.05
2023-01-18T22:34:57.275Z,7.88
2023-01-18T22:37:25.754Z,6.80
2023-01-18T22:39:52.353Z,9.75
2023-01-18T22:42:18.982Z,7.97
2023-01-18T22:44:46.544Z,7.53
2023-01-18T22:47:13.078Z,8.57
2023-01-18T22:49:39.645Z,9.95
2023-01-18T22:52:06.200Z,8.75
2023-01-18T22:54:32.716Z,6.78
2023-01-18T22:56:59.247Z,8.30
2023-01-18T22:59:25.831Z,6.15
2023-01-18T23:01:52.411Z,7.13
2023-01-18T23:04:18.937Z,6.72
2023-01-18T23:06:46.751Z,6.03
2023-01-18T23:09:17.656Z,7.57
2023-01-18T23:11:45.458Z,6.68
2023-01-18T23:14:30.471Z,7.93
2023-01-18T23:17:15.806Z,7.60
2023-01-18T23:19:42.341Z,8.77
2023-01-18T23:22:08.925Z,7.30
2023-01-18T23:24:36.756Z,9.20
2023-01-18T23:27:06.257Z,9.23
2023-01-18T23:29:33.591Z,7.93
2023-01-18T23:32:00.181Z,8.75
2023-01-18T23:34:26.755Z,6.70
2023-01-18T23:36:53.738Z,10.77
2023-01-18T23:39:39.361Z,8.20
2023-01-18T23:42:24.450Z,9.10
2023-01-18T23:45:09.759Z,8.35
2023-01-18T23:47:55.231Z,12.57
2023-01-18T23:50:40.723Z,7.70
2023-01-18T23:53:30.711Z,10.52
2023-01-18T23:55:57.874Z,9.18
2023-01-18T23:58:24.910Z,9.90
